^^
Datos históricos de la estación: Murcia-Puente Tocinos
Diario Informe para Abril 24, 2019 Unidades:  Métrico    Ingés   Ambas
Diario Semanal Mensual Anual
  Máxima: Mínima: Promedio:
Temperatura: 21 °C 11.7 °C 16.6 °C
Punto de rocio: 9.8 °C 7.1 °C 8.5 °C
Humedad: 81% 41.5% 60%
Velocidad viento: 17.2km/h 3.2km/h 8.4km/h
Racha viento: 37.8km/h - -
Viento- - SO
Presión: 1021.3 hPa 1010.8 hPa -
Precipitación: 0.0 mm    
 
 
Tabla de datos para Abril 24, 2019
Hora Temperatura Punto de rocio Presión Viento Velocidad viento Racha viento Humedad Intensidad lluvia(por hora) Nubes
00:04 14.7 °C 9 °C 1010.8 hPa SSO 7.8 km/h 12.9 km/h 68.7% 0.0 mm
00:09 14.8 °C 8.9 °C 1010.8 hPa SO 7.6 km/h 11.9 km/h 68% 0.0 mm
00:14 14.8 °C 8.8 °C 1010.8 hPa OSO 7.1 km/h 14.8 km/h 67.2% 0.0 mm
00:19 14.8 °C 8.7 °C 1010.8 hPa OSO 6.9 km/h 13.7 km/h 66.7% 0.0 mm
00:24 14.9 °C 8.6 °C 1011.0 hPa SO 7.4 km/h 14.5 km/h 66% 0.0 mm
00:29 14.9 °C 8.6 °C 1011.0 hPa SO 7.6 km/h 14 km/h 66% 0.0 mm
00:34 14.9 °C 8.6 °C 1011.0 hPa SSO 7.6 km/h 14.8 km/h 65.9% 0.0 mm
00:39 14.9 °C 8.7 °C 1011.0 hPa Sur 7.6 km/h 14.5 km/h 66.3% 0.0 mm
00:44 14.8 °C 8.8 °C 1010.9 hPa Sur 7.1 km/h 12.9 km/h 67.2% 0.0 mm
00:49 14.7 °C 8.8 °C 1010.9 hPa SSO 6.9 km/h 11.1 km/h 67.9% 0.0 mm
00:54 14.7 °C 8.8 °C 1010.9 hPa SSO 6.6 km/h 11.3 km/h 68% 0.0 mm
00:59 14.7 °C 8.8 °C 1010.8 hPa Sur 6.5 km/h 9.7 km/h 68.2% 0.0 mm
01:04 14.6 °C 9 °C 1010.8 hPa Sur 4.6 km/h 6.9 km/h 69.1% 0.0 mm
01:09 14.5 °C 9.2 °C 1011.0 hPa SE 3.9 km/h 8 km/h 70.8% 0.0 mm
01:14 14.3 °C 9.4 °C 1011.0 hPa SE 3.9 km/h 8 km/h 72.4% 0.0 mm
01:19 14.1 °C 9.4 °C 1011.0 hPa SSE 3.9 km/h 9.5 km/h 73.3% 0.0 mm
01:24 13.9 °C 9.4 °C 1011.0 hPa Sur 4.9 km/h 9.7 km/h 74% 0.0 mm
01:29 13.9 °C 9.4 °C 1010.9 hPa Sur 5.8 km/h 8.4 km/h 74.4% 0.0 mm
01:34 13.9 °C 9.4 °C 1010.9 hPa Sur 5.8 km/h 8 km/h 74.1% 0.0 mm
01:39 13.9 °C 9.3 °C 1010.9 hPa Sur 5.8 km/h 8 km/h 74% 0.0 mm
01:44 13.9 °C 9.4 °C 1010.9 hPa SSO 5 km/h 8 km/h 74% 0.0 mm
01:49 14 °C 9.3 °C 1010.9 hPa Sur 4.7 km/h 8 km/h 73.3% 0.0 mm
01:54 14.1 °C 9.3 °C 1010.9 hPa Sur 4.7 km/h 8 km/h 73% 0.0 mm
01:59 14.1 °C 9.4 °C 1010.9 hPa SSE 4.7 km/h 5.8 km/h 73.2% 0.0 mm
02:04 14.1 °C 9.4 °C 1010.9 hPa Sur 3.6 km/h 7.4 km/h 73.5% 0.0 mm
02:09 14.1 °C 9.3 °C 1010.9 hPa Sur 3.2 km/h 8.4 km/h 73% 0.0 mm
02:14 14.1 °C 9.2 °C 1010.9 hPa OSO 4.2 km/h 8.4 km/h 72.4% 0.0 mm
02:19 14.1 °C 9.3 °C 1010.9 hPa SO 4.7 km/h 8 km/h 72.6% 0.0 mm
02:24 14.1 °C 9.1 °C 1011.0 hPa SSO 4.1 km/h 8 km/h 72.1% 0.0 mm
02:29 14.1 °C 9.1 °C 1011.0 hPa SSO 3.9 km/h 9.3 km/h 72% 0.0 mm
02:34 14.1 °C 9.1 °C 1011.0 hPa Sur 5.1 km/h 9.7 km/h 72% 0.0 mm
02:39 14.1 °C 9.1 °C 1011.1 hPa Sur 5.8 km/h 8 km/h 72% 0.0 mm
02:44 14.1 °C 9.1 °C 1011.1 hPa Sur 5 km/h 9.3 km/h 72% 0.0 mm
02:49 13.9 °C 9.1 °C 1011.1 hPa Sur 4.7 km/h 9.7 km/h 72.9% 0.0 mm
02:54 13.9 °C 9.1 °C 1011.3 hPa SSO 5.8 km/h 9.7 km/h 73% 0.0 mm
02:59 13.8 °C 8.9 °C 1011.3 hPa SSO 6.5 km/h 10 km/h 72.1% 0.0 mm
03:04 13.9 °C 8.9 °C 1011.3 hPa SSO 6.8 km/h 9.7 km/h 72% 0.0 mm
03:09 13.9 °C 8.9 °C 1011.5 hPa SSO 6.9 km/h 9.7 km/h 72% 0.0 mm
03:14 13.8 °C 8.9 °C 1011.5 hPa SSO 6.2 km/h 9.7 km/h 72% 0.0 mm
03:19 13.8 °C 8.8 °C 1011.5 hPa SO 5.8 km/h 8 km/h 72% 0.0 mm
03:24 13.8 °C 8.8 °C 1011.6 hPa SSO 5.2 km/h 8.7 km/h 72% 0.0 mm
03:29 13.8 °C 8.8 °C 1011.6 hPa SSO 5 km/h 9.7 km/h 72% 0.0 mm
03:34 13.7 °C 8.7 °C 1011.6 hPa SSO 6 km/h 10.3 km/h 72% 0.0 mm
03:39 13.7 °C 8.7 °C 1011.8 hPa SSO 6.5 km/h 11.3 km/h 72% 0.0 mm
03:44 13.7 °C 8.7 °C 1011.8 hPa SSO 6.8 km/h 11.9 km/h 72% 0.0 mm
03:49 13.6 °C 8.7 °C 1011.8 hPa SSO 6.9 km/h 14.8 km/h 72% 0.0 mm
03:54 13.6 °C 8.7 °C 1011.8 hPa SSO 7.9 km/h 14.5 km/h 72% 0.0 mm
03:59 13.6 °C 8.5 °C 1011.7 hPa SSO 8.4 km/h 14.8 km/h 71.1% 0.0 mm
04:04 13.6 °C 8.3 °C 1011.7 hPa SO 8.4 km/h 14.5 km/h 70.2% 0.0 mm
04:09 13.7 °C 8.3 °C 1011.8 hPa SO 8.4 km/h 14.8 km/h 70% 0.0 mm
04:14 13.7 °C 8.3 °C 1011.8 hPa SO 7.8 km/h 14.5 km/h 70% 0.0 mm
04:19 13.7 °C 8.3 °C 1011.8 hPa SO 7.6 km/h 12.9 km/h 70% 0.0 mm
04:24 13.6 °C 8.2 °C 1011.8 hPa SSO 7.1 km/h 13 km/h 70.1% 0.0 mm
04:29 13.6 °C 8.4 °C 1011.7 hPa SSO 6.9 km/h 15.6 km/h 71% 0.0 mm
04:34 13.4 °C 8.4 °C 1011.7 hPa SSO 8.7 km/h 16.1 km/h 71.8% 0.0 mm
04:39 13.3 °C 8.4 °C 1012.0 hPa SSO 9.5 km/h 14.5 km/h 72.5% 0.0 mm
04:44 13.2 °C 8.4 °C 1012.0 hPa SSO 8.7 km/h 13 km/h 73% 0.0 mm
04:49 13.2 °C 8.4 °C 1012.0 hPa SSO 8.4 km/h 13 km/h 72.9% 0.0 mm
04:54 13.2 °C 8.3 °C 1012.1 hPa SSO 8.4 km/h 15.6 km/h 72% 0.0 mm
04:59 13.3 °C 8.2 °C 1012.1 hPa SSO 8.4 km/h 16.1 km/h 71.6% 0.0 mm
05:04 13.3 °C 8.3 °C 1012.1 hPa SSO 8.6 km/h 14.5 km/h 71.6% 0.0 mm
05:09 13.3 °C 8.3 °C 1012.2 hPa SO 8.7 km/h 13.7 km/h 72% 0.0 mm
05:14 13.2 °C 8.3 °C 1012.2 hPa SO 8 km/h 14.5 km/h 72.2% 0.0 mm
05:19 13.1 °C 8.4 °C 1012.2 hPa SO 7.6 km/h 11.3 km/h 73% 0.0 mm
05:24 12.9 °C 8.2 °C 1012.2 hPa SO 6.8 km/h 11.3 km/h 73.3% 0.0 mm
05:29 12.9 °C 8.4 °C 1012.2 hPa SSO 6.5 km/h 9.7 km/h 74% 0.0 mm
05:34 12.8 °C 8.3 °C 1012.2 hPa SSO 6 km/h 13 km/h 74% 0.0 mm
05:39 12.8 °C 8.3 °C 1012.4 hPa SSO 5.8 km/h 13 km/h 74.1% 0.0 mm
05:44 12.8 °C 8.5 °C 1012.4 hPa SO 7.5 km/h 12.9 km/h 75% 0.0 mm
05:49 12.8 °C 8.5 °C 1012.4 hPa SO 8.4 km/h 11.3 km/h 75% 0.0 mm
05:54 12.8 °C 8.5 °C 1012.4 hPa SO 7.1 km/h 9.7 km/h 75% 0.0 mm
05:59 12.8 °C 8.5 °C 1012.3 hPa SO 6.5 km/h 10 km/h 75% 0.0 mm
06:04 12.8 °C 8.6 °C 1012.3 hPa SSO 6 km/h 9.7 km/h 75.4% 0.0 mm
06:09 12.9 °C 8.6 °C 1012.3 hPa SSO 5.8 km/h 11.9 km/h 75% 0.0 mm
06:14 12.9 °C 8.6 °C 1012.3 hPa Sur 6.5 km/h 11.3 km/h 75% 0.0 mm
06:19 12.9 °C 8.6 °C 1012.3 hPa SSO 6.9 km/h 11.3 km/h 75% 0.0 mm
06:24 12.9 °C 8.6 °C 1012.5 hPa SSO 6.2 km/h 13 km/h 75% 0.0 mm
06:29 12.9 °C 8.6 °C 1012.5 hPa SSO 5.8 km/h 12.9 km/h 75% 0.0 mm
06:34 12.9 °C 8.6 °C 1012.5 hPa SSO 7 km/h 13 km/h 75% 0.0 mm
06:39 12.9 °C 8.6 °C 1012.7 hPa SSO 7.6 km/h 13.7 km/h 75% 0.0 mm
06:44 12.9 °C 8.6 °C 1012.7 hPa SSO 8.3 km/h 15.6 km/h 75% 0.0 mm
06:49 12.9 °C 8.5 °C 1012.7 hPa SO 8.7 km/h 16.7 km/h 75% 0.0 mm
06:54 12.8 °C 8.6 °C 1013.1 hPa OSO 9.2 km/h 16.1 km/h 75.8% 0.0 mm
06:59 12.7 °C 8.6 °C 1013.1 hPa SO 9.5 km/h 13.7 km/h 76.5% 0.0 mm
07:04 12.6 °C 8.6 °C 1013.1 hPa SO 8.7 km/h 14.5 km/h 77% 0.0 mm
07:09 12.4 °C 8.6 °C 1013.2 hPa SSO 8.4 km/h 14.5 km/h 77.7% 0.0 mm
07:14 12.3 °C 8.6 °C 1013.2 hPa SSO 9.1 km/h 15.6 km/h 78% 0.0 mm
07:19 12.3 °C 8.5 °C 1013.2 hPa SSO 9.5 km/h 16.1 km/h 78% 0.0 mm
07:24 12.2 °C 8.5 °C 1013.3 hPa SSO 9.5 km/h 18 km/h 78% 0.0 mm
07:29 12.2 °C 8.5 °C 1013.3 hPa SSO 9.5 km/h 19.3 km/h 78.2% 0.0 mm
07:34 12.2 °C 8.7 °C 1013.3 hPa SO 9.8 km/h 19.3 km/h 79% 0.0 mm
07:39 12.2 °C 8.7 °C 1013.5 hPa SO 10 km/h 16.1 km/h 79% 0.0 mm
07:44 12.2 °C 8.6 °C 1013.5 hPa SO 7.9 km/h 13.7 km/h 78.7% 0.0 mm
07:49 12.2 °C 8.5 °C 1013.5 hPa OSO 6.9 km/h 14.5 km/h 78% 0.0 mm
07:54 12.2 °C 8.5 °C 1013.8 hPa OSO 7.4 km/h 13 km/h 78% 0.0 mm
07:59 12.2 °C 8.5 °C 1013.8 hPa SO 7.6 km/h 13.7 km/h 78.1% 0.0 mm
08:04 12.2 °C 8.7 °C 1013.8 hPa OSO 6.3 km/h 14.5 km/h 79% 0.0 mm
08:09 12.2 °C 8.7 °C 1014.0 hPa SSO 5.8 km/h 9.7 km/h 79% 0.0 mm
08:14 12.2 °C 8.7 °C 1014.0 hPa Sur 5 km/h 11.1 km/h 79% 0.0 mm
08:19 12.1 °C 8.6 °C 1014.0 hPa SSE 4.7 km/h 11.3 km/h 79% 0.0 mm
08:24 11.9 °C 8.5 °C 1014.1 hPa SSE 5.9 km/h 13 km/h 79.6% 0.0 mm
08:29 11.8 °C 8.5 °C 1014.1 hPa SSE 6.5 km/h 14.8 km/h 80.1% 0.0 mm
08:34 11.7 °C 8.6 °C 1014.1 hPa SSE 8.4 km/h 14.5 km/h 81% 0.0 mm
08:39 11.7 °C 8.6 °C 1014.4 hPa SSE 9.5 km/h 14.5 km/h 81% 0.0 mm
08:44 11.8 °C 8.7 °C 1014.4 hPa SSE 9 km/h 14.5 km/h 81% 0.0 mm
08:49 11.9 °C 8.6 °C 1014.4 hPa SSE 8.7 km/h 11.3 km/h 80.4% 0.0 mm
08:54 12 °C 8.7 °C 1014.5 hPa SSE 7.2 km/h 10 km/h 80% 0.0 mm
08:59 12.2 °C 8.7 °C 1014.5 hPa SSE 6.5 km/h 9.7 km/h 79.2% 0.0 mm
09:04 12.3 °C 8.8 °C 1014.5 hPa SE 6.5 km/h 9.7 km/h 79% 0.0 mm
09:09 12.5 °C 8.9 °C 1014.9 hPa SE 6.5 km/h 9.7 km/h 78.3% 0.0 mm
09:14 12.7 °C 8.9 °C 1014.9 hPa SE 5.5 km/h 9.7 km/h 78% 0.0 mm
09:19 12.7 °C 8.9 °C 1014.9 hPa SE 5 km/h 11.1 km/h 78% 0.0 mm
09:24 12.7 °C 9 °C 1015.1 hPa SE 6.8 km/h 11.9 km/h 78% 0.0 mm
09:29 12.8 °C 9.1 °C 1015.1 hPa SSE 7.6 km/h 12.2 km/h 78% 0.0 mm
09:34 13 °C 8.9 °C 1015.1 hPa SSE 8.1 km/h 14.8 km/h 76.4% 0.0 mm
09:39 13.3 °C 9 °C 1015.4 hPa Sur 8.4 km/h 14.5 km/h 75.5% 0.0 mm
09:44 13.6 °C 9.1 °C 1015.4 hPa Sur 8.4 km/h 11.3 km/h 74.1% 0.0 mm
09:49 13.9 °C 9.1 °C 1015.4 hPa SSE 8.4 km/h 11.3 km/h 73.1% 0.0 mm
09:54 14.2 °C 9.3 °C 1015.5 hPa SSE 6.1 km/h 10 km/h 72.3% 0.0 mm
09:59 14.5 °C 9.3 °C 1015.5 hPa SSO 5 km/h 11.1 km/h 71.1% 0.0 mm
10:04 14.8 °C 9.2 °C 1015.5 hPa SSO 6 km/h 13 km/h 69.4% 0.0 mm
10:09 15.1 °C 9.3 °C 1015.8 hPa SSO 6.5 km/h 12.9 km/h 68.4% 0.0 mm
10:14 15.3 °C 9.2 °C 1015.8 hPa Sur 7.2 km/h 13 km/h 67.2% 0.0 mm
10:19 15.5 °C 9.3 °C 1015.8 hPa SSE 7.6 km/h 12.9 km/h 66.8% 0.0 mm
10:24 15.6 °C 9.3 °C 1016.1 hPa SSE 8.1 km/h 13 km/h 66% 0.0 mm
10:29 15.8 °C 9.5 °C 1016.1 hPa Sur 8.4 km/h 12.9 km/h 66.4% 0.0 mm
10:34 16 °C 9.6 °C 1016.1 hPa Sur 6.6 km/h 11.1 km/h 65.6% 0.0 mm
10:39 16.1 °C 9.5 °C 1016.4 hPa Sur 5.8 km/h 11.3 km/h 65% 0.0 mm
10:44 16.3 °C 9.5 °C 1016.4 hPa Sur 5.8 km/h 11.3 km/h 64.4% 0.0 mm
10:49 16.4 °C 9.5 °C 1016.4 hPa Sur 5.8 km/h 11.1 km/h 64% 0.0 mm
10:54 16.6 °C 9.7 °C 1016.6 hPa SSE 6.2 km/h 11.3 km/h 64% 0.0 mm
10:59 16.7 °C 9.6 °C 1016.6 hPa Sur 6.5 km/h 9.7 km/h 63% 0.0 mm
11:04 16.9 °C 9.8 °C 1016.6 hPa Sur 4.2 km/h 10 km/h 62.9% 0.0 mm
11:09 17.2 °C 9.8 °C 1016.8 hPa Sur 3.2 km/h 14.8 km/h 61.9% 0.0 mm
11:14 17.2 °C 9.6 °C 1016.8 hPa OSO 4.9 km/h 14.5 km/h 60.9% 0.0 mm
11:19 17.3 °C 9.5 °C 1016.8 hPa OSO 5.8 km/h 13 km/h 60% 0.0 mm
11:24 17.5 °C 9.6 °C 1016.8 hPa Oeste 5.2 km/h 20.9 km/h 59.9% 0.0 mm
11:29 17.7 °C 9.5 °C 1016.7 hPa Oeste 5 km/h 20.9 km/h 59% 0.0 mm
11:34 17.8 °C 9.4 °C 1016.7 hPa Oeste 6.7 km/h 16.7 km/h 58% 0.0 mm
11:39 17.9 °C 9.2 °C 1016.8 hPa Oeste 7.6 km/h 26.2 km/h 56.9% 0.0 mm
11:44 17.9 °C 9.1 °C 1016.8 hPa Oeste 10.7 km/h 28.2 km/h 56.3% 0.0 mm
11:49 18 °C 9.1 °C 1016.8 hPa ONO 12.2 km/h 27.4 km/h 56% 0.0 mm
11:54 18.2 °C 9.2 °C 1016.8 hPa ONO 12.8 km/h 30.9 km/h 55.8% 0.0 mm
11:59 18 °C 8.8 °C 1016.8 hPa ONO 13 km/h 37.8 km/h 55% 0.0 mm
12:04 17.9 °C 8.9 °C 1016.8 hPa ONO 16 km/h 37 km/h 55.6% 0.0 mm
12:09 17.8 °C 8.9 °C 1017.0 hPa ONO 17.2 km/h 27.8 km/h 56.1% 0.0 mm
12:14 18 °C 9.2 °C 1017.0 hPa Oeste 12.5 km/h 27.4 km/h 56.2% 0.0 mm
12:19 18.3 °C 9 °C 1017.0 hPa ONO 10.3 km/h 29.6 km/h 54.7% 0.0 mm
12:24 18.6 °C 9.1 °C 1017.1 hPa Oeste 13.8 km/h 29 km/h 54.2% 0.0 mm
12:29 18.8 °C 9.2 °C 1017.1 hPa Oeste 15.6 km/h 30.6 km/h 53.7% 0.0 mm
12:34 18.7 °C 9.1 °C 1017.1 hPa ONO 15.9 km/h 30.6 km/h 53.4% 0.0 mm
12:39 18.7 °C 9.2 °C 1017.1 hPa ONO 16.1 km/h 29 km/h 54% 0.0 mm
12:44 18.6 °C 9.3 °C 1017.1 hPa ONO 14.7 km/h 27.4 km/h 54.9% 0.0 mm
12:49 18.3 °C 9.4 °C 1017.1 hPa ONO 14 km/h 22.5 km/h 55.8% 0.0 mm
12:54 18.2 °C 9.4 °C 1017.1 hPa ONO 13.8 km/h 24.5 km/h 56.3% 0.0 mm
12:59 18.3 °C 9.4 °C 1017.1 hPa ONO 13.7 km/h 24.1 km/h 56% 0.0 mm
13:04 18.4 °C 9.2 °C 1017.1 hPa ONO 13.2 km/h 24.1 km/h 55.1% 0.0 mm
13:09 18.4 °C 9 °C 1017.1 hPa ONO 13 km/h 24.1 km/h 54.4% 0.0 mm
13:14 18.5 °C 9.1 °C 1017.1 hPa NO 14.2 km/h 24.1 km/h 54.1% 0.0 mm
13:19 18.7 °C 9 °C 1017.1 hPa ONO 14.8 km/h 20.9 km/h 53.4% 0.0 mm
13:24 18.6 °C 8.9 °C 1017.1 hPa Oeste 13.1 km/h 22.2 km/h 53.1% 0.0 mm
13:29 18.6 °C 8.8 °C 1017.0 hPa Oeste 12.2 km/h 22.5 km/h 53% 0.0 mm
13:34 18.6 °C 8.8 °C 1017.0 hPa Oeste 12 km/h 22.2 km/h 53% 0.0 mm
13:39 18.6 °C 8.9 °C 1017.0 hPa ONO 11.9 km/h 22.5 km/h 53.2% 0.0 mm
13:44 18.7 °C 9.2 °C 1016.9 hPa ONO 10.8 km/h 17.7 km/h 54% 0.0 mm
13:49 18.7 °C 9.1 °C 1016.9 hPa ONO 10.3 km/h 22.2 km/h 53.6% 0.0 mm
13:54 18.7 °C 8.9 °C 1016.9 hPa ONO 10.3 km/h 22.5 km/h 52.9% 0.0 mm
13:59 18.8 °C 8.6 °C 1016.7 hPa ONO 10.3 km/h 25.9 km/h 51.4% 0.0 mm
14:04 18.9 °C 8.5 °C 1016.7 hPa ONO 11.7 km/h 25.7 km/h 51% 0.0 mm
14:09 18.8 °C 8.4 °C 1016.9 hPa ONO 12.2 km/h 22.5 km/h 51% 0.0 mm
14:14 18.8 °C 8.7 °C 1016.9 hPa ONO 13.2 km/h 25.9 km/h 51.9% 0.0 mm
14:19 18.8 °C 8.5 °C 1016.9 hPa ONO 13.7 km/h 25.7 km/h 51.1% 0.0 mm
14:24 18.9 °C 8.2 °C 1016.9 hPa ONO 13.9 km/h 29.6 km/h 50% 0.0 mm
14:29 18.9 °C 8.3 °C 1016.9 hPa ONO 14 km/h 29 km/h 50.2% 0.0 mm
14:34 18.9 °C 8.2 °C 1016.9 hPa ONO 13.8 km/h 24.1 km/h 50% 0.0 mm
14:39 19 °C 8.2 °C 1016.9 hPa ONO 13.7 km/h 27.8 km/h 49.6% 0.0 mm
14:44 19.1 °C 8.3 °C 1016.9 hPa ONO 13.7 km/h 28.2 km/h 49.7% 0.0 mm
14:49 18.9 °C 8.1 °C 1016.9 hPa ONO 13.7 km/h 27.4 km/h 49.4% 0.0 mm
14:54 19 °C 8.1 °C 1016.9 hPa Oeste 13.2 km/h 24.5 km/h 49.4% 0.0 mm
14:59 19.2 °C 8.2 °C 1016.8 hPa Oeste 13 km/h 24.1 km/h 49% 0.0 mm
15:04 19.3 °C 8.2 °C 1016.8 hPa Oeste 13.7 km/h 26.2 km/h 48.5% 0.0 mm
15:09 19.4 °C 8 °C 1016.8 hPa Oeste 14 km/h 25.7 km/h 47.8% 0.0 mm
15:14 19.5 °C 8 °C 1016.7 hPa Oeste 14 km/h 24.1 km/h 47.1% 0.0 mm
15:19 19.7 °C 8 °C 1016.7 hPa ONO 14 km/h 24.1 km/h 47% 0.0 mm
15:24 19.6 °C 8 °C 1016.7 hPa Oeste 12.1 km/h 22.5 km/h 47% 0.0 mm
15:29 19.4 °C 7.9 °C 1016.7 hPa ONO 11.1 km/h 22.5 km/h 47.3% 0.0 mm
15:34 19.3 °C 8 °C 1016.7 hPa ONO 11.7 km/h 20.9 km/h 48% 0.0 mm
15:39 19.3 °C 8.1 °C 1016.7 hPa Oeste 11.9 km/h 20.9 km/h 48.2% 0.0 mm
15:44 19.6 °C 8.1 °C 1016.7 hPa ONO 9.6 km/h 24.5 km/h 47.5% 0.0 mm
15:49 19.8 °C 8 °C 1016.7 hPa ONO 8.4 km/h 28.2 km/h 46.6% 0.0 mm
15:54 19.8 °C 7.8 °C 1016.7 hPa Oeste 11.9 km/h 27.4 km/h 46% 0.0 mm
15:59 19.8 °C 7.7 °C 1016.6 hPa ONO 13.7 km/h 25.7 km/h 45.8% 0.0 mm
16:04 19.9 °C 8.1 °C 1016.6 hPa NO 12.4 km/h 18.5 km/h 46.5% 0.0 mm
16:09 20.1 °C 8.5 °C 1016.6 hPa NO 11.9 km/h 19.3 km/h 47% 0.0 mm
16:14 20.3 °C 8.4 °C 1016.4 hPa NO 10.2 km/h 19 km/h 46.6% 0.0 mm
16:19 20.3 °C 8.3 °C 1016.4 hPa ONO 9.5 km/h 19.3 km/h 45.9% 0.0 mm
16:24 20.5 °C 8.1 °C 1016.6 hPa Oeste 9.8 km/h 20.4 km/h 45.1% 0.0 mm
16:29 20.7 °C 8.1 °C 1016.6 hPa Oeste 10 km/h 26.2 km/h 44.5% 0.0 mm
16:34 20.7 °C 8 °C 1016.6 hPa Oeste 10.7 km/h 25.9 km/h 44.1% 0.0 mm
16:39 20.8 °C 8.1 °C 1016.7 hPa OSO 11.1 km/h 24.1 km/h 44% 0.0 mm
16:44 20.8 °C 8.1 °C 1016.7 hPa Oeste 11.6 km/h 24.1 km/h 44% 0.0 mm
16:49 20.8 °C 8.1 °C 1016.7 hPa OSO 11.9 km/h 19.3 km/h 43.9% 0.0 mm
16:54 20.9 °C 7.9 °C 1016.8 hPa OSO 9.8 km/h 16.7 km/h 43.1% 0.0 mm
16:59 21 °C 8 °C 1016.8 hPa Oeste 8.7 km/h 18.5 km/h 43% 0.0 mm
17:04 21 °C 8 °C 1016.8 hPa Oeste 9.6 km/h 22.2 km/h 43.1% 0.0 mm
17:09 20.8 °C 7.9 °C 1017.0 hPa ONO 10 km/h 23.3 km/h 43.3% 0.0 mm
17:14 20.8 °C 7.9 °C 1017.0 hPa ONO 12 km/h 24.1 km/h 43.2% 0.0 mm
17:19 20.8 °C 8.1 °C 1017.0 hPa Oeste 13 km/h 25.9 km/h 44% 0.0 mm
17:24 20.9 °C 8.1 °C 1017.1 hPa Oeste 11.7 km/h 25.7 km/h 43.7% 0.0 mm
17:29 20.9 °C 7.5 °C 1017.1 hPa ONO 11.1 km/h 30.6 km/h 42% 0.0 mm
17:34 21 °C 7.4 °C 1017.1 hPa Oeste 14.1 km/h 30.6 km/h 41.5% 0.0 mm
17:39 21 °C 7.5 °C 1017.4 hPa ONO 15.6 km/h 25.7 km/h 41.7% 0.0 mm
17:44 20.9 °C 7.6 °C 1017.4 hPa ONO 14.3 km/h 24.1 km/h 42.3% 0.0 mm
17:49 20.9 °C 7.7 °C 1017.4 hPa NO 13.7 km/h 24.1 km/h 42.7% 0.0 mm
17:54 20.9 °C 7.8 °C 1017.5 hPa NO 12.5 km/h 24.1 km/h 42.8% 0.0 mm
17:59 20.9 °C 7.9 °C 1017.5 hPa NO 11.9 km/h 22.5 km/h 43.2% 0.0 mm
18:04 20.9 °C 7.9 °C 1017.5 hPa NO 9.4 km/h 15.6 km/h 43.2% 0.0 mm
18:09 20.9 °C 7.9 °C 1017.6 hPa NO 8.4 km/h 16.7 km/h 43% 0.0 mm
18:14 21 °C 8.2 °C 1017.6 hPa NNO 8.6 km/h 16.1 km/h 43.9% 0.0 mm
18:19 21 °C 8.3 °C 1017.6 hPa NO 8.7 km/h 11.3 km/h 44% 0.0 mm
18:24 21 °C 8.4 °C 1017.7 hPa NNO 6.3 km/h 12.2 km/h 44.3% 0.0 mm
18:29 21 °C 8.1 °C 1017.7 hPa NO 5 km/h 13 km/h 43.7% 0.0 mm
18:34 20.9 °C 8.1 °C 1017.7 hPa NO 6 km/h 11.3 km/h 43.8% 0.0 mm
18:39 20.9 °C 7.9 °C 1017.9 hPa ONO 6.5 km/h 19 km/h 43.2% 0.0 mm
18:44 20.8 °C 7.8 °C 1017.9 hPa ONO 7.8 km/h 19.3 km/h 42.9% 0.0 mm
18:49 20.8 °C 7.8 °C 1017.9 hPa ONO 8.4 km/h 14.5 km/h 43% 0.0 mm
18:54 20.8 °C 7.8 °C 1017.9 hPa ONO 7.1 km/h 9.5 km/h 43% 0.0 mm
18:59 20.7 °C 7.7 °C 1017.9 hPa ONO 6.5 km/h 10 km/h 43.1% 0.0 mm
19:04 20.6 °C 7.8 °C 1017.9 hPa ONO 6.5 km/h 10.3 km/h 43.5% 0.0 mm
19:09 20.6 °C 7.8 °C 1018.0 hPa ONO 6.5 km/h 11.3 km/h 43.8% 0.0 mm
19:14 20.4 °C 7.5 °C 1018.0 hPa ONO 6.8 km/h 16.1 km/h 43.4% 0.0 mm
19:19 20.4 °C 7.4 °C 1018.0 hPa Oeste 6.9 km/h 16.7 km/h 43.1% 0.0 mm
19:24 20.3 °C 7.6 °C 1018.2 hPa ONO 7.4 km/h 18.3 km/h 43.7% 0.0 mm
19:29 20.3 °C 7.3 °C 1018.2 hPa ONO 7.6 km/h 19.3 km/h 43% 0.0 mm
19:34 20.3 °C 7.4 °C 1018.2 hPa ONO 8.8 km/h 14.5 km/h 43.2% 0.0 mm
19:39 20.2 °C 7.2 °C 1018.3 hPa ONO 9.5 km/h 18.5 km/h 43% 0.0 mm
19:44 20.2 °C 7.2 °C 1018.3 hPa ONO 9.8 km/h 22 km/h 43% 0.0 mm
19:49 20.2 °C 7.2 °C 1018.3 hPa ONO 10 km/h 22.5 km/h 43% 0.0 mm
19:54 20.2 °C 7.2 °C 1018.6 hPa ONO 10.7 km/h 22.5 km/h 43% 0.0 mm
19:59 20.1 °C 7.1 °C 1018.6 hPa ONO 11.1 km/h 16.1 km/h 43% 0.0 mm
20:04 20 °C 7.4 °C 1018.6 hPa ONO 9.1 km/h 12.9 km/h 43.9% 0.0 mm
20:09 19.8 °C 7.4 °C 1018.8 hPa Oeste 8.4 km/h 9.7 km/h 44.6% 0.0 mm
20:14 19.7 °C 7.4 °C 1018.8 hPa SSO 5.4 km/h 8 km/h 44.9% 0.0 mm
20:19 19.7 °C 7.5 °C 1018.8 hPa SSO 3.9 km/h 8 km/h 45.3% 0.0 mm
20:24 19.7 °C 7.7 °C 1019.1 hPa SSO 3.9 km/h 8 km/h 46% 0.0 mm
20:29 19.7 °C 7.7 °C 1019.1 hPa SSO 3.9 km/h 8 km/h 46% 0.0 mm
20:34 19.6 °C 7.7 °C 1019.1 hPa SSO 3.4 km/h 11.1 km/h 46.1% 0.0 mm
20:39 19.6 °C 8 °C 1019.3 hPa OSO 3.2 km/h 11.3 km/h 47% 0.0 mm
20:44 19.4 °C 7.9 °C 1019.3 hPa OSO 5 km/h 9.7 km/h 47.2% 0.0 mm
20:49 19.3 °C 8 °C 1019.3 hPa OSO 5.8 km/h 8 km/h 48% 0.0 mm
20:54 19.1 °C 8 °C 1019.6 hPa SO 5 km/h 9.5 km/h 48.7% 0.0 mm
20:59 18.9 °C 7.9 °C 1019.6 hPa SO 4.7 km/h 9.7 km/h 49% 0.0 mm
21:04 18.9 °C 7.9 °C 1019.6 hPa SSO 5.4 km/h 9.5 km/h 49% 0.0 mm
21:09 18.9 °C 7.8 °C 1019.7 hPa SO 5.8 km/h 10 km/h 48.6% 0.0 mm
21:14 19 °C 8.1 °C 1019.7 hPa SO 6.2 km/h 10 km/h 49% 0.0 mm
21:19 18.9 °C 7.8 °C 1019.7 hPa SO 6.5 km/h 11.9 km/h 48.4% 0.0 mm
21:24 19 °C 8 °C 1019.9 hPa OSO 7.2 km/h 11.3 km/h 48.9% 0.0 mm
21:29 18.9 °C 8 °C 1019.9 hPa OSO 7.6 km/h 11.3 km/h 49.2% 0.0 mm
21:34 18.8 °C 8.1 °C 1019.9 hPa OSO 6.8 km/h 9.7 km/h 50% 0.0 mm
21:39 18.7 °C 8.1 °C 1019.9 hPa OSO 6.5 km/h 14.8 km/h 50% 0.0 mm
21:44 18.7 °C 8.2 °C 1019.9 hPa SO 6.8 km/h 14.5 km/h 50.6% 0.0 mm
21:49 18.6 °C 8.5 °C 1019.9 hPa SSE 6.9 km/h 10 km/h 51.8% 0.0 mm
21:54 18.1 °C 8.9 °C 1020.2 hPa SE 6.6 km/h 13 km/h 55.2% 0.0 mm
21:56 17.4 °C 8.9 °C 1020.2 hPa SE 6.5 km/h 13 km/h 57.3% 0.0 mm
22:04 16.9 °C 8.6 °C 1020.2 hPa SE 8.7 km/h 13 km/h 58% 0.0 mm
22:09 17 °C 8.6 °C 1020.5 hPa SSE 8.7 km/h 13 km/h 58% 0.0 mm
22:14 17.1 °C 8.5 °C 1020.5 hPa SSE 7.2 km/h 11.9 km/h 57% 0.0 mm
22:19 17.2 °C 8.5 °C 1020.5 hPa Sur 6.9 km/h 11.3 km/h 56.6% 0.0 mm
22:24 17.3 °C 8.4 °C 1020.5 hPa SSO 7.4 km/h 13 km/h 56% 0.0 mm
22:29 17.4 °C 8.4 °C 1020.5 hPa SSO 7.6 km/h 12.9 km/h 55.6% 0.0 mm
22:34 17.7 °C 8.4 °C 1020.5 hPa OSO 7.6 km/h 11.9 km/h 54.5% 0.0 mm
22:39 17.9 °C 8.4 °C 1020.6 hPa OSO 7.6 km/h 12.2 km/h 54% 0.0 mm
22:44 17.9 °C 8.4 °C 1020.6 hPa Oeste 7.6 km/h 13 km/h 54% 0.0 mm
22:49 17.8 °C 8.5 °C 1020.6 hPa Oeste 7.6 km/h 21.7 km/h 54.9% 0.0 mm
22:54 17.8 °C 8.3 °C 1020.6 hPa Oeste 9 km/h 22.5 km/h 53.7% 0.0 mm
22:59 18.1 °C 8.2 °C 1020.6 hPa Oeste 9.5 km/h 22.5 km/h 52.3% 0.0 mm
23:04 18.3 °C 8.3 °C 1020.6 hPa Oeste 9.9 km/h 19.3 km/h 52% 0.0 mm
23:09 18.3 °C 8.3 °C 1020.7 hPa Oeste 10 km/h 15.6 km/h 52% 0.0 mm
23:14 18.2 °C 8.2 °C 1020.7 hPa Oeste 8.8 km/h 16.1 km/h 52% 0.0 mm
23:19 18.2 °C 8.3 °C 1020.7 hPa SO 8.4 km/h 12.9 km/h 52.4% 0.0 mm
23:24 18.1 °C 8.4 °C 1021.0 hPa SO 7 km/h 11.3 km/h 53% 0.0 mm
23:29 18 °C 8.3 °C 1021.0 hPa SO 6.5 km/h 13 km/h 53% 0.0 mm
23:34 18 °C 8.3 °C 1021.0 hPa SO 7.3 km/h 14.8 km/h 53% 0.0 mm
23:39 18.1 °C 8.4 °C 1021.1 hPa SSO 7.6 km/h 14.5 km/h 53% 0.0 mm
23:44 18.1 °C 8.4 °C 1021.1 hPa SSO 7.1 km/h 11.1 km/h 53% 0.0 mm
23:49 17.9 °C 8.2 °C 1021.1 hPa SSO 6.9 km/h 13 km/h 53% 0.0 mm
23:54 17.9 °C 8.2 °C 1021.3 hPa OSO 7.4 km/h 13.7 km/h 53% 0.0 mm
23:59 17.9 °C 8.2 °C 1021.3 hPa OSO 7.6 km/h 14.8 km/h 53% 0.0 mm
Murcia-Puente Tocinos, España
Compliments of Weather Underground - 3 mb

La estación de MeteoMurcia.com, publica sus datos en los siguientes proyectos:

Weather Underground PWS IMURCIAP2 Meteoclimatic www.awekas.at

W3Counter
Web Analytics